Time;durP1;ratioP1;P1;durP2;ratioP2;P2;SDS_P1;SDS_P2;PMS_P1;PMS_P2;Temp;Humidity;BMP_temperature;BMP_pressure;BME280_temperature;BME280_humidity;BME280_pressure;Samples;Min_cycle;Max_cycle;Signal;HPM_P1;HPM_P2
2024/04/15 00:00:00;;;;;;;;;;;;;;;;;;5433174;26;19999;-82
2024/04/15 00:02:29;;;;;;;;;;;;;;;;;;5433708;26;20011;-81
2024/04/15 00:04:55;;;;;;;;;;;;;;;;;;5440913;26;20047;-82
2024/04/15 00:07:23;;;;;;;;;;;;;;;;;;5450516;26;19999;-83
2024/04/15 00:09:49;;;;;;;;;;;;;;;;;;5434061;26;20003;-81
2024/04/15 00:12:18;;;;;;;;;;;;;;;;;;5434261;26;20011;-81
2024/04/15 00:14:44;;;;;;;;;;;;;;;;;;5456885;26;20002;-82
2024/04/15 00:17:12;;;;;;;;;;;;;;;;;;5454067;26;19999;-79
2024/04/15 00:19:38;;;;;;;;;;;;;;;;;;5464783;26;20025;-81
2024/04/15 00:22:07;;;;;;;;;;;;;;;;;;5466783;26;19999;-81
2024/04/15 00:24:33;;;;;;;;;;;;;;;;;;5458269;26;20002;-81
2024/04/15 00:27:01;;;;;;;;;;;;;;;;;;5457519;26;19999;-82
2024/04/15 00:29:27;;;;;;;;;;;;;;;;;;5453586;26;20087;-80
2024/04/15 00:31:56;;;;;;;;;;;;;;;;;;5436398;26;20010;-80
2024/04/15 00:34:22;;;;;;;;;;;;;;;;;;5451544;26;20083;-80
2024/04/15 00:36:53;;;;;;;;;;;;;;;;;;5470197;26;20010;-81
2024/04/15 00:39:19;;;;;;;;;;;;;;;;;;5454415;26;20024;-81
2024/04/15 00:41:48;;;;;;;;;;;;;;;;;;5450567;26;20003;-81
2024/04/15 00:44:14;;;;;;;;;;;;;;;;;;5451880;26;20029;-81
2024/04/15 00:46:42;;;;;;;;;;;;;;;;;;5444514;26;20007;-81
2024/04/15 00:49:08;;;;;;;;;;;;;;;;;;5452486;26;20010;-82
2024/04/15 00:51:37;;;;;;;;;;;;;;;;;;5458816;26;20021;-81
2024/04/15 00:54:03;;;;;;;;;;;;;;;;;;5458894;26;20015;-80
2024/04/15 00:56:31;;;;;;;;;;;;;;;;;;5451225;26;20051;-82
2024/04/15 00:58:57;;;;;;;;;;;;;;;;;;5451612;26;20010;-82
2024/04/15 01:01:26;;;;;;;;;;;;;;;;;;5452774;26;20023;-81
2024/04/15 01:03:52;;;;;;;;;;;;;;;;;;5456476;26;20069;-81
2024/04/15 01:06:20;;;;;;;;;;;;;;;;;;5461350;26;20006;-81
2024/04/15 01:08:46;;;;;;;;;;;;;;;;;;5456059;26;20025;-82
2024/04/15 01:11:15;;;;;;;;;;;;;;;;;;5454216;26;20023;-82
2024/04/15 01:13:41;;;;;;;;;;;;;;;;;;5446222;26;20021;-80
2024/04/15 01:16:10;;;;;;;;;;;;;;;;;;5457220;26;20003;-81
2024/04/15 01:18:36;;;;;;;;;;;;;;;;;;5454934;26;20049;-80
2024/04/15 01:21:04;;;;;;;;;;;;;;;;;;5461594;26;20349;-82
2024/04/15 01:23:30;;;;;;;;;;;;;;;;;;5457959;26;20064;-82
2024/04/15 01:25:59;;;;;;;;;;;;;;;;;;5457482;26;20414;-82
2024/04/15 01:28:25;;;;;;;;;;;;;;;;;;5449915;26;20011;-82
2024/04/15 01:30:54;;;;;;;;;;;;;;;;;;5458474;26;20034;-82
2024/04/15 01:33:19;;;;;;;;;;;;;;;;;;5458616;26;20002;-82
2024/04/15 01:35:48;;;;;;;;;;;;;;;;;;5451230;26;20060;-81
2024/04/15 01:38:14;;;;;;;;;;;;;;;;;;5440259;26;20015;-83
2024/04/15 01:40:43;;;;;;;;;;;;;;;;;;5441446;26;19995;-83
2024/04/15 01:43:08;;;;;;;;;;;;;;;;;;5467098;26;20363;-82
2024/04/15 01:45:37;;;;;;;;;;;;;;;;;;5454843;26;20030;-81
2024/04/15 01:48:03;;;;;;;;;;;;;;;;;;5468660;26;20007;-83
2024/04/15 01:50:32;;;;;;;;;;;;;;;;;;5465741;26;20039;-83
2024/04/15 01:52:58;;;;;;;;;;;;;;;;;;5473268;26;20043;-80
2024/04/15 01:55:26;;;;;;;;;;;;;;;;;;5451219;26;20033;-82
2024/04/15 01:57:52;;;;;;;;;;;;;;;;;;5433567;26;20003;-81
2024/04/15 02:00:21;;;;;;;;;;;;;;;;;;5465012;26;20020;-81
2024/04/15 02:02:47;;;;;;;;;;;;;;;;;;5471257;26;20060;-80
2024/04/15 02:05:15;;;;;;;;;;;;;;;;;;5458646;26;20042;-80
2024/04/15 02:07:41;;;;;;;;;;;;;;;;;;5435322;26;20003;-82
2024/04/15 02:10:10;;;;;;;;;;;;;;;;;;5435405;26;19999;-81
2024/04/15 02:12:36;;;;;;;;;;;;;;;;;;5436170;26;20049;-81
2024/04/15 02:15:04;;;;;;;;;;;;;;;;;;5464652;26;20003;-81
2024/04/15 02:17:30;;;;;;;;;;;;;;;;;;5450557;26;19987;-82
2024/04/15 02:19:59;;;;;;;;;;;;;;;;;;5458627;26;20049;-80
2024/04/15 02:22:25;;;;;;;;;;;;;;;;;;5471694;26;20021;-82
2024/04/15 02:24:54;;;;;;;;;;;;;;;;;;5471638;26;20002;-81
2024/04/15 02:27:19;;;;;;;;;;;;;;;;;;5470352;26;20007;-81
2024/04/15 02:29:48;;;;;;;;;;;;;;;;;;5446356;26;19999;-80
2024/04/15 02:32:14;;;;;;;;;;;;;;;;;;5467395;26;20010;-81
2024/04/15 02:34:43;;;;;;;;;;;;;;;;;;5472697;26;20039;-82
2024/04/15 02:37:09;;;;;;;;;;;;;;;;;;5440126;26;19994;-81
2024/04/15 02:39:38;;;;;;;;;;;;;;;;;;5434623;26;20003;-82
2024/04/15 02:42:04;;;;;;;;;;;;;;;;;;5459852;26;20531;-82
2024/04/15 02:44:33;;;;;;;;;;;;;;;;;;5450465;26;20007;-82
2024/04/15 02:46:59;;;;;;;;;;;;;;;;;;5435001;26;20069;-81
2024/04/15 02:49:27;;;;;;;;;;;;;;;;;;5435807;26;19999;-82
2024/04/15 02:51:56;;;;;;;;;;;;;;;;;;5442898;26;20007;-81
2024/04/15 02:54:22;;;;;;;;;;;;;;;;;;5438539;26;19995;-81
2024/04/15 02:56:50;;;;;;;;;;;;;;;;;;5435404;26;20003;-82
2024/04/15 02:59:16;;;;;;;;;;;;;;;;;;5438424;26;20502;-81
2024/04/15 03:01:45;;;;;;;;;;;;;;;;;;5447211;26;20064;-81
2024/04/15 03:04:11;;;;;;;;;;;;;;;;;;5449018;26;20067;-80
2024/04/15 03:06:39;;;;;;;;;;;;;;;;;;5449021;26;20015;-80
2024/04/15 03:09:08;;;;;;;;;;;;;;;;;;5470034;26;20033;-81
2024/04/15 03:11:36;;;;;;;;;;;;;;;;;;5471780;26;20466;-82
2024/04/15 03:14:02;;;;;;;;;;;;;;;;;;5470414;26;20014;-82
2024/04/15 03:16:31;;;;;;;;;;;;;;;;;;5449872;26;20010;-82
2024/04/15 03:18:57;;;;;;;;;;;;;;;;;;5455367;26;20011;-81
2024/04/15 03:21:25;;;;;;;;;;;;;;;;;;5435282;26;20064;-81
2024/04/15 03:23:51;;;;;;;;;;;;;;;;;;5443529;26;19999;-81
2024/04/15 03:26:20;;;;;;;;;;;;;;;;;;5452592;26;20083;-81
2024/04/15 03:28:46;;;;;;;;;;;;;;;;;;5444856;26;20002;-80
2024/04/15 03:31:14;;;;;;;;;;;;;;;;;;5468987;26;19994;-81
2024/04/15 03:33:40;;;;;;;;;;;;;;;;;;5436090;26;20033;-81
2024/04/15 03:36:09;;;;;;;;;;;;;;;;;;5446962;26;20533;-83
2024/04/15 03:38:37;;;;;;;;;;;;;;;;;;5463467;26;20065;-82
2024/04/15 03:41:06;;;;;;;;;;;;;;;;;;5435674;26;20007;-81
2024/04/15 03:43:35;;;;;;;;;;;;;;;;;;5435868;26;20014;-82
2024/04/15 03:46:01;;;;;;;;;;;;;;;;;;5434743;26;20065;-81
2024/04/15 03:48:29;;;;;;;;;;;;;;;;;;5452890;26;20006;-81
2024/04/15 03:50:55;;;;;;;;;;;;;;;;;;5441134;26;20011;-82
2024/04/15 03:53:24;;;;;;;;;;;;;;;;;;5456943;26;20025;-82
2024/04/15 03:55:50;;;;;;;;;;;;;;;;;;5463636;26;19999;-81
2024/04/15 03:58:18;;;;;;;;;;;;;;;;;;5434466;26;20014;-79
2024/04/15 04:00:44;;;;;;;;;;;;;;;;;;5435089;26;20019;-82
2024/04/15 04:03:14;;;;;;;;;;;;;;;;;;5457390;26;20096;-80
2024/04/15 04:05:40;;;;;;;;;;;;;;;;;;5458421;26;19999;-81
2024/04/15 04:08:09;;;;;;;;;;;;;;;;;;5464860;26;19995;-81
2024/04/15 04:10:35;;;;;;;;;;;;;;;;;;5470780;26;20060;-81
2024/04/15 04:13:04;;;;;;;;;;;;;;;;;;5456876;26;20017;-80
2024/04/15 04:15:30;;;;;;;;;;;;;;;;;;5437403;26;20006;-82
2024/04/15 04:17:58;;;;;;;;;;;;;;;;;;5469529;26;20062;-81
2024/04/15 04:20:24;;;;;;;;;;;;;;;;;;5470295;26;20410;-81
2024/04/15 04:22:53;;;;;;;;;;;;;;;;;;5444461;26;20097;-81
2024/04/15 04:25:19;;;;;;;;;;;;;;;;;;5434291;26;20007;-83
2024/04/15 04:27:47;;;;;;;;;;;;;;;;;;5432707;26;20083;-80
2024/04/15 04:30:13;;;;;;;;;;;;;;;;;;5434031;26;20000;-81
2024/04/15 04:32:42;;;;;;;;;;;;;;;;;;5449129;26;20002;-81
2024/04/15 04:35:08;;;;;;;;;;;;;;;;;;5454234;26;19995;-84
2024/04/15 04:37:37;;;;;;;;;;;;;;;;;;5437606;26;20018;-82
2024/04/15 04:40:03;;;;;;;;;;;;;;;;;;5442313;26;20006;-81
2024/04/15 04:42:31;;;;;;;;;;;;;;;;;;5461702;26;19995;-81
2024/04/15 04:44:57;;;;;;;;;;;;;;;;;;5434008;26;20017;-82
2024/04/15 04:47:26;;;;;;;;;;;;;;;;;;5461302;26;20021;-81
2024/04/15 04:49:52;;;;;;;;;;;;;;;;;;5465334;26;20048;-79
2024/04/15 04:52:20;;;;;;;;;;;;;;;;;;5463300;26;20015;-81
2024/04/15 04:54:46;;;;;;;;;;;;;;;;;;5460321;26;20067;-81
2024/04/15 04:57:15;;;;;;;;;;;;;;;;;;5435609;26;20003;-81
2024/04/15 04:59:41;;;;;;;;;;;;;;;;;;5432924;26;20061;-81
2024/04/15 05:02:10;;;;;;;;;;;;;;;;;;5433250;26;20006;-80
2024/04/15 05:04:35;;;;;;;;;;;;;;;;;;5436621;26;20003;-81
2024/04/15 05:07:04;;;;;;;;;;;;;;;;;;5451319;26;20003;-80
2024/04/15 05:09:30;;;;;;;;;;;;;;;;;;5449010;26;20064;-80
2024/04/15 05:11:59;;;;;;;;;;;;;;;;;;5455860;26;20419;-82
2024/04/15 05:14:25;;;;;;;;;;;;;;;;;;5457379;26;19999;-79
2024/04/15 05:16:57;;;;;;;;;;;;;;;;;;5453369;26;20021;-82
2024/04/15 05:19:23;;;;;;;;;;;;;;;;;;5454196;26;20011;-82
2024/04/15 05:21:51;;;;;;;;;;;;;;;;;;5453425;26;20003;-82
2024/04/15 05:24:17;;;;;;;;;;;;;;;;;;5451214;26;20003;-83
2024/04/15 05:26:46;;;;;;;;;;;;;;;;;;5454753;26;20002;-81
2024/04/15 05:29:12;;;;;;;;;;;;;;;;;;5459147;26;20272;-81
2024/04/15 05:31:40;;;;;;;;;;;;;;;;;;5456824;26;20041;-82
2024/04/15 05:34:06;;;;;;;;;;;;;;;;;;5445715;26;20409;-82
2024/04/15 05:36:35;;;;;;;;;;;;;;;;;;5450263;26;20011;-81
2024/04/15 05:39:02;;;;;;;;;;;;;;;;;;5451366;26;20025;-80
2024/04/15 05:41:31;;;;;;;;;;;;;;;;;;5453728;26;20015;-80
2024/04/15 05:43:57;;;;;;;;;;;;;;;;;;5452526;26;20011;-81
2024/04/15 05:46:25;;;;;;;;;;;;;;;;;;5455379;26;19994;-81
2024/04/15 05:48:51;;;;;;;;;;;;;;;;;;5452078;26;20017;-81
2024/04/15 05:51:20;;;;;;;;;;;;;;;;;;5452217;26;20013;-81
2024/04/15 05:53:46;;;;;;;;;;;;;;;;;;5451387;26;20003;-80
2024/04/15 05:56:14;;;;;;;;;;;;;;;;;;5454177;26;20002;-80
2024/04/15 05:58:40;;;;;;;;;;;;;;;;;;5451963;26;20006;-79
2024/04/15 06:01:09;;;;;;;;;;;;;;;;;;5452762;26;20053;-80
2024/04/15 06:03:35;;;;;;;;;;;;;;;;;;5450766;26;20091;-82
2024/04/15 06:06:04;;;;;;;;;;;;;;;;;;5457011;26;20006;-83
2024/04/15 06:08:29;;;;;;;;;;;;;;;;;;5455604;26;20002;-83
2024/04/15 06:10:58;;;;;;;;;;;;;;;;;;5453421;26;20030;-81
2024/04/15 06:13:27;;;;;;;;;;;;;;;;;;5448853;26;20080;-80
2024/04/15 06:15:53;;;;;;;;;;;;;;;;;;5449648;26;20064;-81
2024/04/15 06:18:21;;;;;;;;;;;;;;;;;;5449107;26;20014;-80
2024/04/15 06:20:47;;;;;;;;;;;;;;;;;;5453120;26;20010;-80
2024/04/15 06:23:16;;;;;;;;;;;;;;;;;;5451804;26;20021;-81
2024/04/15 06:25:42;;;;;;;;;;;;;;;;;;5450160;26;20458;-79
2024/04/15 06:28:10;;;;;;;;;;;;;;;;;;5452334;26;20083;-79
2024/04/15 06:30:36;;;;;;;;;;;;;;;;;;5450025;26;20003;-78
2024/04/15 06:33:05;;;;;;;;;;;;;;;;;;5447724;26;20324;-82
2024/04/15 06:35:31;;;;;;;;;;;;;;;;;;5442655;26;20021;-81
2024/04/15 06:37:59;;;;;;;;;;;;;;;;;;5448084;26;20425;-82
2024/04/15 06:40:25;;;;;;;;;;;;;;;;;;5451997;26;20029;-81
2024/04/15 06:42:54;;;;;;;;;;;;;;;;;;5447864;26;20011;-81
2024/04/15 06:45:20;;;;;;;;;;;;;;;;;;5448987;26;20475;-81
2024/04/15 06:47:50;;;;;;;;;;;;;;;;;;5446108;26;20025;-80
2024/04/15 06:50:15;;;;;;;;;;;;;;;;;;5451436;26;19994;-81
2024/04/15 06:52:44;;;;;;;;;;;;;;;;;;5456020;26;20043;-83
2024/04/15 06:55:10;;;;;;;;;;;;;;;;;;5445575;26;20015;-80
2024/04/15 06:57:39;;;;;;;;;;;;;;;;;;5425811;26;20069;-81
2024/04/15 07:00:05;;;;;;;;;;;;;;;;;;5426569;26;19999;-81
2024/04/15 07:02:33;;;;;;;;;;;;;;;;;;5445415;26;20086;-81
2024/04/15 07:04:59;;;;;;;;;;;;;;;;;;5450391;26;19999;-82
2024/04/15 07:07:28;;;;;;;;;;;;;;;;;;5444355;26;19999;-82
2024/04/15 07:09:54;;;;;;;;;;;;;;;;;;5466274;26;20002;-83
2024/04/15 07:12:22;;;;;;;;;;;;;;;;;;5464465;26;20013;-82
2024/04/15 07:14:48;;;;;;;;;;;;;;;;;;5452438;26;20003;-82
2024/04/15 07:17:17;;;;;;;;;;;;;;;;;;5461437;26;20071;-82
2024/04/15 07:19:44;;;;;;;;;;;;;;;;;;5462935;26;20021;-81
2024/04/15 07:22:14;;;;;;;;;;;;;;;;;;5461124;26;20006;-79
2024/04/15 07:24:40;;;;;;;;;;;;;;;;;;5438412;26;20007;-80
2024/04/15 07:27:09;;;;;;;;;;;;;;;;;;5428605;26;20017;-84
2024/04/15 07:29:35;;;;;;;;;;;;;;;;;;5435308;26;20007;-82
2024/04/15 07:32:04;;;;;;;;;;;;;;;;;;5449719;26;20148;-82
2024/04/15 07:34:30;;;;;;;;;;;;;;;;;;5448237;26;20084;-83
2024/04/15 07:36:58;;;;;;;;;;;;;;;;;;5426868;26;20003;-82
2024/04/15 07:39:24;;;;;;;;;;;;;;;;;;5427120;26;20205;-83
2024/04/15 07:41:53;;;;;;;;;;;;;;;;;;5428299;26;20003;-80
2024/04/15 07:44:19;;;;;;;;;;;;;;;;;;5430072;26;19995;-82
2024/04/15 07:46:47;;;;;;;;;;;;;;;;;;5427350;26;20076;-82
2024/04/15 07:49:13;;;;;;;;;;;;;;;;;;5426027;26;20354;-82
2024/04/15 07:51:42;;;;;;;;;;;;;;;;;;5426774;26;20021;-83
2024/04/15 07:54:08;;;;;;;;;;;;;;;;;;5426415;26;20065;-81
2024/04/15 07:56:36;;;;;;;;;;;;;;;;;;5426235;26;20003;-80
2024/04/15 07:59:03;;;;;;;;;;;;;;;;;;5422866;26;20089;-81
2024/04/15 08:01:32;;;;;;;;;;;;;;;;;;5421831;26;20375;-81
2024/04/15 08:03:58;;;;;;;;;;;;;;;;;;5423058;26;20393;-80
2024/04/15 08:06:27;;;;;;;;;;;;;;;;;;5422264;26;19995;-83
2024/04/15 08:08:53;;;;;;;;;;;;;;;;;;5420260;26;20084;-81
2024/04/15 08:11:21;;;;;;;;;;;;;;;;;;5421152;26;20406;-80
2024/04/15 08:13:47;;;;;;;;;;;;;;;;;;5422987;26;19995;-79
2024/04/15 08:16:16;;;;;;;;;;;;;;;;;;5418635;26;20061;-79
2024/04/15 08:18:42;;;;;;;;;;;;;;;;;;5422318;26;20057;-81
2024/04/15 08:21:11;;;;;;;;;;;;;;;;;;5426407;26;20007;-82
2024/04/15 08:23:37;;;;;;;;;;;;;;;;;;5429035;26;20014;-82
2024/04/15 08:26:06;;;;;;;;;;;;;;;;;;5429930;26;20025;-83
2024/04/15 08:28:32;;;;;;;;;;;;;;;;;;5422912;26;20083;-80
2024/04/15 08:31:01;;;;;;;;;;;;;;;;;;5424040;26;20455;-82
2024/04/15 08:33:27;;;;;;;;;;;;;;;;;;5422115;26;19999;-81
2024/04/15 08:35:55;;;;;;;;;;;;;;;;;;5421043;26;20026;-82
2024/04/15 08:38:21;;;;;;;;;;;;;;;;;;5423483;26;20007;-81
2024/04/15 08:40:50;;;;;;;;;;;;;;;;;;5451090;26;20002;-82
2024/04/15 08:43:16;;;;;;;;;;;;;;;;;;5428588;26;20374;-81
2024/04/15 08:45:44;;;;;;;;;;;;;;;;;;5427326;26;20478;-81
2024/04/15 08:48:10;;;;;;;;;;;;;;;;;;5424738;26;20021;-80
2024/04/15 08:50:39;;;;;;;;;;;;;;;;;;5425046;26;19995;-80
2024/04/15 08:53:06;;;;;;;;;;;;;;;;;;5425550;26;20021;-80
2024/04/15 08:55:35;;;;;;;;;;;;;;;;;;5423933;26;20007;-81
2024/04/15 08:58:01;;;;;;;;;;;;;;;;;;5423548;26;20027;-81
2024/04/15 09:00:29;;;;;;;;;;;;;;;;;;5423364;26;20396;-80
2024/04/15 09:02:55;;;;;;;;;;;;;;;;;;5424642;26;20007;-79
2024/04/15 09:05:24;;;;;;;;;;;;;;;;;;5458439;26;19995;-80
2024/04/15 09:07:50;;;;;;;;;;;;;;;;;;5436396;26;20010;-81
2024/04/15 09:10:19;;;;;;;;;;;;;;;;;;5443713;26;19995;-81
2024/04/15 09:12:45;;;;;;;;;;;;;;;;;;5426150;26;20248;-81
2024/04/15 09:15:14;;;;;;;;;;;;;;;;;;5427146;26;20041;-81
2024/04/15 09:17:40;;;;;;;;;;;;;;;;;;5423421;26;20007;-82
2024/04/15 09:20:08;;;;;;;;;;;;;;;;;;5424038;26;20021;-81
2024/04/15 09:22:34;;;;;;;;;;;;;;;;;;5427961;26;19995;-80
2024/04/15 09:25:03;;;;;;;;;;;;;;;;;;5460337;26;20059;-79
2024/04/15 09:27:29;;;;;;;;;;;;;;;;;;5463329;26;20002;-81
2024/04/15 09:29:59;;;;;;;;;;;;;;;;;;5466417;26;20026;-79
2024/04/15 09:32:29;;;;;;;;;;;;;;;;;;5434638;26;20003;-79
2024/04/15 09:34:58;;;;;;;;;;;;;;;;;;5455100;26;20079;-79
2024/04/15 09:37:24;;;;;;;;;;;;;;;;;;5460953;26;19998;-79
2024/04/15 09:39:53;;;;;;;;;;;;;;;;;;5465991;26;20349;-83
2024/04/15 09:42:19;;;;;;;;;;;;;;;;;;5462087;26;20467;-81
2024/04/15 09:44:47;;;;;;;;;;;;;;;;;;5449497;26;20025;-82
2024/04/15 09:47:13;;;;;;;;;;;;;;;;;;5423779;26;20018;-81
2024/04/15 09:49:42;;;;;;;;;;;;;;;;;;5423842;26;20475;-81
2024/04/15 09:52:08;;;;;;;;;;;;;;;;;;5424884;26;21067;-79
2024/04/15 09:54:36;;;;;;;;;;;;;;;;;;5425067;26;19995;-79
2024/04/15 09:57:02;;;;;;;;;;;;;;;;;;5422575;26;20003;-79
2024/04/15 09:59:31;;;;;;;;;;;;;;;;;;5425288;26;20021;-82
2024/04/15 10:01:57;;;;;;;;;;;;;;;;;;5425454;26;20467;-81
2024/04/15 10:04:26;;;;;;;;;;;;;;;;;;5425910;26;20018;-81
2024/04/15 10:06:51;;;;;;;;;;;;;;;;;;5444851;26;20082;-80
2024/04/15 10:09:20;;;;;;;;;;;;;;;;;;5430463;26;20010;-83
2024/04/15 10:11:46;;;;;;;;;;;;;;;;;;5426839;26;20007;-80
2024/04/15 10:14:15;;;;;;;;;;;;;;;;;;5441674;26;20090;-80
2024/04/15 10:16:41;;;;;;;;;;;;;;;;;;5427422;26;20022;-80
2024/04/15 10:19:09;;;;;;;;;;;;;;;;;;5424564;26;20011;-82
2024/04/15 10:21:35;;;;;;;;;;;;;;;;;;5427009;26;19995;-80
2024/04/15 10:24:04;;;;;;;;;;;;;;;;;;5427224;26;20011;-80
2024/04/15 10:26:30;;;;;;;;;;;;;;;;;;5439816;26;20450;-80
2024/04/15 10:28:58;;;;;;;;;;;;;;;;;;5451051;26;20029;-82
2024/04/15 10:31:24;;;;;;;;;;;;;;;;;;5426554;26;20017;-80
2024/04/15 10:33:53;;;;;;;;;;;;;;;;;;5445000;26;20458;-79
2024/04/15 10:39:03;;;;;;;;;;;;;;;;;;5436086;26;20006;-80
2024/04/15 10:41:29;;;;;;;;;;;;;;;;;;5440854;26;19999;-80
2024/04/15 10:43:57;;;;;;;;;;;;;;;;;;5428461;26;20030;-80
2024/04/15 10:46:23;;;;;;;;;;;;;;;;;;5426673;26;20003;-81
2024/04/15 10:48:52;;;;;;;;;;;;;;;;;;5427205;26;20039;-79
2024/04/15 10:51:18;;;;;;;;;;;;;;;;;;5425880;26;20007;-80
2024/04/15 10:53:47;;;;;;;;;;;;;;;;;;5428578;26;20486;-81
2024/04/15 10:56:13;;;;;;;;;;;;;;;;;;5426740;26;19999;-82
2024/04/15 10:58:42;;;;;;;;;;;;;;;;;;5424059;26;19929;-80
2024/04/15 11:01:08;;;;;;;;;;;;;;;;;;5424715;26;20002;-81
2024/04/15 11:03:36;;;;;;;;;;;;;;;;;;5440774;26;20316;-80
2024/04/15 11:06:02;;;;;;;;;;;;;;;;;;5426513;26;19936;-81
2024/04/15 11:08:31;;;;;;;;;;;;;;;;;;5428016;26;19937;-80
2024/04/15 11:10:57;;;;;;;;;;;;;;;;;;5426631;26;19937;-82
2024/04/15 11:13:26;;;;;;;;;;;;;;;;;;5425548;26;19929;-79
2024/04/15 11:16:00;;;;;;;;;;;;;;;;;;5425957;26;19929;-81
2024/04/15 11:18:30;;;;;;;;;;;;;;;;;;5423313;26;19945;-82
2024/04/15 11:20:56;;;;;;;;;;;;;;;;;;5426592;26;19929;-82
2024/04/15 11:23:24;;;;;;;;;;;;;;;;;;5450019;26;19935;-81
2024/04/15 11:25:50;;;;;;;;;;;;;;;;;;5437763;26;19929;-81
2024/04/15 11:28:19;;;;;;;;;;;;;;;;;;5426934;26;19974;-82
2024/04/15 11:30:45;;;;;;;;;;;;;;;;;;5438125;26;20162;-79
2024/04/15 11:33:13;;;;;;;;;;;;;;;;;;5448955;26;19937;-82
2024/04/15 11:35:39;;;;;;;;;;;;;;;;;;5428956;26;19936;-80
2024/04/15 11:38:08;;;;;;;;;;;;;;;;;;5428646;26;20392;-82
2024/04/15 11:40:34;;;;;;;;;;;;;;;;;;5426978;26;19937;-80
2024/04/15 11:43:02;;;;;;;;;;;;;;;;;;5428719;26;19935;-80
2024/04/15 11:45:29;;;;;;;;;;;;;;;;;;5442347;26;19929;-83
2024/04/15 11:47:57;;;;;;;;;;;;;;;;;;5425941;26;19929;-82
2024/04/15 11:50:23;;;;;;;;;;;;;;;;;;5429544;26;20390;-80
2024/04/15 11:52:52;;;;;;;;;;;;;;;;;;5429151;26;19933;-83
2024/04/15 11:55:18;;;;;;;;;;;;;;;;;;5459323;26;19928;-81
2024/04/15 11:57:47;;;;;;;;;;;;;;;;;;5463533;26;19974;-80
2024/04/15 12:00:13;;;;;;;;;;;;;;;;;;5461707;26;20361;-82
2024/04/15 12:02:42;;;;;;;;;;;;;;;;;;5460287;26;19940;-83
2024/04/15 12:05:10;;;;;;;;;;;;;;;;;;5425189;26;20327;-83
2024/04/15 12:07:36;;;;;;;;;;;;;;;;;;5423847;26;20272;-81
2024/04/15 12:10:05;;;;;;;;;;;;;;;;;;5425010;26;19936;-83
2024/04/15 12:12:31;;;;;;;;;;;;;;;;;;5446200;26;19962;-82
2024/04/15 12:15:00;;;;;;;;;;;;;;;;;;5461210;26;21605;-80
2024/04/15 12:17:26;;;;;;;;;;;;;;;;;;5442396;26;20388;-82
2024/04/15 12:19:55;;;;;;;;;;;;;;;;;;5425907;26;19998;-80
2024/04/15 12:22:21;;;;;;;;;;;;;;;;;;5425164;26;20378;-82
2024/04/15 12:24:49;;;;;;;;;;;;;;;;;;5426506;26;19995;-83
2024/04/15 12:27:15;;;;;;;;;;;;;;;;;;5427606;26;19928;-81
2024/04/15 12:29:44;;;;;;;;;;;;;;;;;;5447562;26;20512;-82
2024/04/15 12:32:10;;;;;;;;;;;;;;;;;;5434617;26;19937;-82
2024/04/15 12:34:39;;;;;;;;;;;;;;;;;;5448569;26;19932;-80
2024/04/15 12:37:05;;;;;;;;;;;;;;;;;;5430429;26;19929;-79
2024/04/15 12:39:36;;;;;;;;;;;;;;;;;;5426816;26;19936;-82
2024/04/15 12:42:02;;;;;;;;;;;;;;;;;;5425733;26;19932;-81
2024/04/15 12:44:31;;;;;;;;;;;;;;;;;;5427581;26;19933;-82
2024/04/15 12:46:58;;;;;;;;;;;;;;;;;;5440436;26;19936;-81
2024/04/15 12:49:27;;;;;;;;;;;;;;;;;;5443618;26;19936;-82
2024/04/15 12:51:53;;;;;;;;;;;;;;;;;;5446748;26;19929;-81
2024/04/15 12:54:22;;;;;;;;;;;;;;;;;;5444899;26;19939;-81
2024/04/15 12:56:48;;;;;;;;;;;;;;;;;;5438274;26;19929;-81
2024/04/15 12:59:17;;;;;;;;;;;;;;;;;;5452373;26;19963;-80
2024/04/15 13:01:43;;;;;;;;;;;;;;;;;;5444700;26;19938;-83
2024/04/15 13:04:11;;;;;;;;;;;;;;;;;;5438719;26;19935;-81
2024/04/15 13:06:37;;;;;;;;;;;;;;;;;;5424265;26;19936;-81
2024/04/15 13:09:06;;;;;;;;;;;;;;;;;;5423825;26;19937;-81
2024/04/15 13:11:32;;;;;;;;;;;;;;;;;;5459114;26;19936;-82
2024/04/15 13:14:00;;;;;;;;;;;;;;;;;;5460445;26;20265;-79
2024/04/15 13:16:26;;;;;;;;;;;;;;;;;;5458568;26;19971;-80
2024/04/15 13:18:55;;;;;;;;;;;;;;;;;;5436476;26;19929;-79
2024/04/15 13:21:21;;;;;;;;;;;;;;;;;;5422545;26;20079;-79
2024/04/15 13:23:53;;;;;;;;;;;;;;;;;;5445261;26;20268;-80
2024/04/15 13:26:19;;;;;;;;;;;;;;;;;;5459019;26;19928;-79
2024/04/15 13:28:48;;;;;;;;;;;;;;;;;;5459290;26;20353;-77
2024/04/15 13:31:14;;;;;;;;;;;;;;;;;;5429694;26;19929;-79
2024/04/15 13:33:44;;;;;;;;;;;;;;;;;;5448706;26;19935;-80
2024/04/15 13:36:10;;;;;;;;;;;;;;;;;;5421602;26;19929;-81
2024/04/15 13:38:39;;;;;;;;;;;;;;;;;;5422234;26;19944;-80
2024/04/15 13:41:05;;;;;;;;;;;;;;;;;;5421435;26;19944;-80
2024/04/15 13:43:34;;;;;;;;;;;;;;;;;;5450731;26;20401;-80
2024/04/15 13:46:00;;;;;;;;;;;;;;;;;;5441573;26;19936;-78
2024/04/15 13:48:28;;;;;;;;;;;;;;;;;;5457516;26;19928;-83
2024/04/15 13:50:54;;;;;;;;;;;;;;;;;;5430707;26;20002;-79
2024/04/15 13:53:23;;;;;;;;;;;;;;;;;;5423456;26;19937;-81
2024/04/15 13:55:49;;;;;;;;;;;;;;;;;;5449935;26;19929;-80
2024/04/15 13:58:17;;;;;;;;;;;;;;;;;;5432088;26;19998;-81
2024/04/15 14:00:44;;;;;;;;;;;;;;;;;;5455872;26;19940;-80
2024/04/15 14:03:12;;;;;;;;;;;;;;;;;;5426555;26;19935;-79
2024/04/15 14:05:38;;;;;;;;;;;;;;;;;;5423019;26;19936;-79
2024/04/15 14:08:07;;;;;;;;;;;;;;;;;;5450705;26;20373;-81
2024/04/15 14:10:33;;;;;;;;;;;;;;;;;;5442490;26;19937;-79
2024/04/15 14:13:02;;;;;;;;;;;;;;;;;;5457330;26;19928;-80
2024/04/15 14:15:28;;;;;;;;;;;;;;;;;;5458628;26;19936;-81
2024/04/15 14:17:56;;;;;;;;;;;;;;;;;;5438150;26;19929;-80
2024/04/15 14:20:23;;;;;;;;;;;;;;;;;;5434654;26;19940;-77
2024/04/15 14:22:51;;;;;;;;;;;;;;;;;;5446368;26;19932;-77
2024/04/15 14:25:17;;;;;;;;;;;;;;;;;;5442456;26;19929;-78
2024/04/15 14:27:46;;;;;;;;;;;;;;;;;;5445260;26;19929;-79
2024/04/15 14:30:12;;;;;;;;;;;;;;;;;;5455877;26;19928;-80
2024/04/15 14:32:40;;;;;;;;;;;;;;;;;;5457548;26;19978;-80
2024/04/15 14:35:06;;;;;;;;;;;;;;;;;;5456802;26;19935;-81
2024/04/15 14:37:38;;;;;;;;;;;;;;;;;;5444509;26;20365;-80
2024/04/15 14:40:04;;;;;;;;;;;;;;;;;;5457809;26;19928;-80
2024/04/15 14:42:32;;;;;;;;;;;;;;;;;;5451647;26;19978;-81
2024/04/15 14:44:58;;;;;;;;;;;;;;;;;;5445582;26;19939;-80
2024/04/15 14:47:27;;;;;;;;;;;;;;;;;;5456542;26;19998;-82
2024/04/15 14:49:53;;;;;;;;;;;;;;;;;;5446117;26;19937;-82
2024/04/15 14:52:22;;;;;;;;;;;;;;;;;;5421030;26;19958;-80
2024/04/15 14:54:48;;;;;;;;;;;;;;;;;;5437652;26;19960;-80
2024/04/15 14:57:16;;;;;;;;;;;;;;;;;;5436849;26;19958;-81
2024/04/15 14:59:44;;;;;;;;;;;;;;;;;;5439121;26;19995;-81
2024/04/15 15:02:13;;;;;;;;;;;;;;;;;;5451497;26;20051;-80
2024/04/15 15:04:40;;;;;;;;;;;;;;;;;;5448357;26;20002;-82
2024/04/15 15:07:08;;;;;;;;;;;;;;;;;;5456581;26;20003;-83
2024/04/15 15:09:34;;;;;;;;;;;;;;;;;;5455402;26;20323;-81
2024/04/15 15:12:03;;;;;;;;;;;;;;;;;;5456658;26;20025;-81
2024/04/15 15:14:29;;;;;;;;;;;;;;;;;;5458561;26;20509;-81
2024/04/15 15:16:58;;;;;;;;;;;;;;;;;;5459810;26;20018;-84
2024/04/15 15:19:24;;;;;;;;;;;;;;;;;;5449517;26;20015;-82
2024/04/15 15:21:52;;;;;;;;;;;;;;;;;;5458786;26;19999;-83
2024/04/15 15:24:18;;;;;;;;;;;;;;;;;;5455893;26;20351;-82
2024/04/15 15:26:49;;;;;;;;;;;;;;;;;;5467181;26;20409;-81
2024/04/15 15:29:16;;;;;;;;;;;;;;;;;;5450038;26;20065;-81
2024/04/15 15:31:45;;;;;;;;;;;;;;;;;;5431829;26;20021;-81
2024/04/15 15:34:11;;;;;;;;;;;;;;;;;;5461789;26;20003;-80
2024/04/15 15:36:40;;;;;;;;;;;;;;;;;;5454359;26;19994;-80
2024/04/15 15:39:06;;;;;;;;;;;;;;;;;;5465815;26;20135;-79
2024/04/15 15:41:34;;;;;;;;;;;;;;;;;;5462128;26;20002;-79
2024/04/15 15:44:00;;;;;;;;;;;;;;;;;;5464198;26;20014;-80
2024/04/15 15:46:29;;;;;;;;;;;;;;;;;;5450998;26;20032;-81
2024/04/15 15:48:56;;;;;;;;;;;;;;;;;;5463706;26;20072;-80
2024/04/15 15:51:24;;;;;;;;;;;;;;;;;;5457674;26;20473;-80
2024/04/15 15:53:51;;;;;;;;;;;;;;;;;;5443735;26;19999;-81
2024/04/15 15:56:19;;;;;;;;;;;;;;;;;;5427302;26;19995;-81
2024/04/15 15:58:47;;;;;;;;;;;;;;;;;;5437118;26;20222;-80
2024/04/15 16:01:15;;;;;;;;;;;;;;;;;;5456368;26;19999;-80
2024/04/15 16:03:41;;;;;;;;;;;;;;;;;;5451985;26;20014;-82
2024/04/15 16:06:10;;;;;;;;;;;;;;;;;;5444055;26;20021;-81
2024/04/15 16:08:36;;;;;;;;;;;;;;;;;;5459507;26;20010;-82
2024/04/15 16:11:05;;;;;;;;;;;;;;;;;;5461189;26;20060;-81
2024/04/15 16:13:35;;;;;;;;;;;;;;;;;;5445232;26;20029;-83
2024/04/15 16:16:04;;;;;;;;;;;;;;;;;;5460446;26;20033;-82
2024/04/15 16:18:30;;;;;;;;;;;;;;;;;;5460443;26;20112;-83
2024/04/15 16:20:59;;;;;;;;;;;;;;;;;;5436074;26;20076;-82
2024/04/15 16:23:26;;;;;;;;;;;;;;;;;;5436346;26;20034;-83
2024/04/15 16:25:55;;;;;;;;;;;;;;;;;;5445929;26;19998;-84
2024/04/15 16:28:21;;;;;;;;;;;;;;;;;;5442572;26;19998;-83
2024/04/15 16:30:50;;;;;;;;;;;;;;;;;;5453838;26;20052;-82
2024/04/15 16:33:16;;;;;;;;;;;;;;;;;;5447660;26;20073;-83
2024/04/15 16:35:45;;;;;;;;;;;;;;;;;;5437058;26;20011;-82
2024/04/15 16:38:11;;;;;;;;;;;;;;;;;;5426078;26;19999;-83
2024/04/15 16:40:39;;;;;;;;;;;;;;;;;;5438034;26;20003;-82
2024/04/15 16:43:05;;;;;;;;;;;;;;;;;;5453695;26;20025;-82
2024/04/15 16:45:34;;;;;;;;;;;;;;;;;;5462984;26;20002;-82
2024/04/15 16:48:00;;;;;;;;;;;;;;;;;;5462088;26;20467;-83